createdAt,value
2023-05-16T00:00:53.303Z,10.49
2023-05-16T00:06:07.139Z,10.42
2023-05-16T00:08:36.671Z,10.45
2023-05-16T00:11:10.768Z,10.46
2023-05-16T00:13:42.366Z,10.56
2023-05-16T00:16:13.161Z,10.63
2023-05-16T00:18:45.827Z,10.65
2023-05-16T00:21:17.485Z,10.61
2023-05-16T00:23:44.268Z,10.62
2023-05-16T00:26:10.705Z,10.56
2023-05-16T00:28:41.180Z,10.52
2023-05-16T00:31:07.586Z,10.45
2023-05-16T00:33:34.172Z,10.41
2023-05-16T00:36:06.305Z,10.33
2023-05-16T00:38:32.663Z,10.27
2023-05-16T00:40:59.047Z,10.23
2023-05-16T00:43:27.839Z,10.18
2023-05-16T00:45:57.936Z,10.08
2023-05-16T00:48:33.136Z,10.02
2023-05-16T00:51:00.725Z,9.94
2023-05-16T00:53:27.275Z,9.93
2023-05-16T00:56:06.176Z,9.94
2023-05-16T01:01:19.006Z,9.94
2023-05-16T01:03:49.477Z,9.94
2023-05-16T01:06:17.247Z,9.88
2023-05-16T01:08:49.568Z,9.86
2023-05-16T01:11:34.600Z,9.81
2023-05-16T01:14:42.519Z,9.72
2023-05-16T01:17:29.636Z,9.66
2023-05-16T01:20:09.028Z,9.61
2023-05-16T01:22:52.068Z,9.59
2023-05-16T01:25:54.498Z,9.53
2023-05-16T01:28:21.272Z,9.47
2023-05-16T01:30:47.645Z,9.47
2023-05-16T01:33:17.650Z,9.44
2023-05-16T01:36:17.003Z,9.43
2023-05-16T01:39:01.219Z,9.40
2023-05-16T01:42:03.593Z,9.38
2023-05-16T01:44:32.863Z,9.33
2023-05-16T01:47:02.878Z,9.28
2023-05-16T01:49:42.488Z,9.25
2023-05-16T01:52:16.169Z,9.25
2023-05-16T01:54:48.720Z,9.21
2023-05-16T01:57:18.348Z,9.18
2023-05-16T01:59:51.272Z,9.14
2023-05-16T02:02:20.878Z,9.12
2023-05-16T02:04:47.567Z,9.08
2023-05-16T02:07:16.320Z,9.05
2023-05-16T02:09:45.518Z,9.03
2023-05-16T02:12:11.907Z,9.04
2023-05-16T02:14:47.406Z,9.02
2023-05-16T02:17:13.797Z,8.99
2023-05-16T02:19:40.209Z,8.97
2023-05-16T02:22:06.578Z,8.95
2023-05-16T02:24:32.984Z,8.95
2023-05-16T02:26:59.887Z,8.92
2023-05-16T02:29:35.090Z,8.91
2023-05-16T02:32:01.529Z,8.90
2023-05-16T02:34:40.291Z,8.89
2023-05-16T02:37:10.201Z,8.90
2023-05-16T02:39:41.390Z,8.86
2023-05-16T02:42:08.102Z,8.89
2023-05-16T02:44:34.497Z,8.89
2023-05-16T02:47:01.428Z,8.88
2023-05-16T02:49:32.266Z,8.85
2023-05-16T02:52:01.189Z,8.84
2023-05-16T02:54:30.451Z,8.82
2023-05-16T02:56:56.948Z,8.81
2023-05-16T02:59:27.721Z,8.82
2023-05-16T03:01:54.150Z,8.79
2023-05-16T03:04:20.554Z,8.79
2023-05-16T03:06:52.340Z,8.79
2023-05-16T03:09:19.414Z,8.77
2023-05-16T03:11:48.944Z,8.75
2023-05-16T03:14:21.385Z,8.77
2023-05-16T03:16:48.209Z,8.77
2023-05-16T03:22:00.911Z,8.71
2023-05-16T03:24:27.413Z,8.72
2023-05-16T03:26:53.972Z,8.71
2023-05-16T03:29:30.300Z,8.71
2023-05-16T03:31:56.980Z,8.68
2023-05-16T03:34:26.511Z,8.66
2023-05-16T03:36:56.114Z,8.62
2023-05-16T03:39:30.136Z,8.63
2023-05-16T03:41:57.159Z,8.63
2023-05-16T03:44:23.625Z,8.65
2023-05-16T03:46:54.144Z,8.67
2023-05-16T03:49:36.059Z,8.68
2023-05-16T03:52:03.838Z,8.69
2023-05-16T03:54:37.771Z,8.70
2023-05-16T03:57:07.312Z,8.73
2023-05-16T03:59:34.546Z,8.76
2023-05-16T04:02:08.403Z,8.82
2023-05-16T04:04:34.769Z,8.80
2023-05-16T04:07:04.986Z,8.83
2023-05-16T04:09:34.150Z,8.85
2023-05-16T04:12:02.286Z,8.88
2023-05-16T04:14:34.159Z,8.94
2023-05-16T04:17:00.633Z,8.99
2023-05-16T04:19:27.092Z,9.24
2023-05-16T04:21:59.940Z,10.04
2023-05-16T04:24:28.815Z,11.11
2023-05-16T04:26:58.292Z,11.40
2023-05-16T04:29:29.386Z,11.43
2023-05-16T04:32:05.827Z,12.17
2023-05-16T04:34:33.979Z,12.92
2023-05-16T04:37:09.659Z,13.64
2023-05-16T04:39:44.048Z,14.07
2023-05-16T04:42:13.280Z,14.34
2023-05-16T04:44:39.676Z,13.33
2023-05-16T04:47:07.981Z,13.86
2023-05-16T04:49:37.180Z,14.97
2023-05-16T04:52:06.742Z,15.75
2023-05-16T04:54:33.152Z,16.22
2023-05-16T04:56:59.568Z,16.83
2023-05-16T04:59:26.201Z,17.36
2023-05-16T05:02:01.589Z,17.78
2023-05-16T05:04:28.072Z,18.06
2023-05-16T05:07:20.728Z,18.65
2023-05-16T05:09:47.424Z,19.12
2023-05-16T05:12:13.784Z,19.52
2023-05-16T05:14:52.876Z,19.75
2023-05-16T05:17:23.527Z,19.72
2023-05-16T05:19:53.487Z,20.19
2023-05-16T05:22:19.827Z,20.63
2023-05-16T05:24:48.647Z,20.53
2023-05-16T05:27:18.120Z,20.61
2023-05-16T05:29:44.865Z,21.49
2023-05-16T05:32:20.326Z,21.68
2023-05-16T05:34:46.769Z,22.05
2023-05-16T05:37:26.237Z,20.50
2023-05-16T05:45:21.176Z,17.86
2023-05-16T05:47:51.007Z,19.92
2023-05-16T05:50:21.566Z,20.77
2023-05-16T05:52:50.661Z,20.98
2023-05-16T05:55:17.105Z,21.46
2023-05-16T06:00:36.333Z,22.27
2023-05-16T06:03:02.735Z,22.80
2023-05-16T06:05:39.246Z,22.22
2023-05-16T06:08:05.714Z,21.92
2023-05-16T06:10:36.570Z,20.97
2023-05-16T06:13:02.970Z,20.40
2023-05-16T06:15:29.453Z,19.19
2023-05-16T06:17:58.673Z,18.38
2023-05-16T06:20:28.453Z,17.35
2023-05-16T06:22:58.949Z,16.56
2023-05-16T06:25:25.708Z,16.02
2023-05-16T06:27:52.532Z,15.96
2023-05-16T06:30:18.981Z,15.65
2023-05-16T06:32:45.707Z,15.11
2023-05-16T06:35:14.512Z,15.18
2023-05-16T06:37:42.903Z,14.86
2023-05-16T06:40:12.900Z,14.69
2023-05-16T06:42:42.419Z,14.54
2023-05-16T06:45:11.859Z,14.85
2023-05-16T06:47:45.062Z,14.53
2023-05-16T06:50:11.585Z,14.43
2023-05-16T06:52:46.496Z,14.91
2023-05-16T06:55:13.002Z,14.59
2023-05-16T06:57:45.973Z,14.68
2023-05-16T07:00:13.676Z,14.98
2023-05-16T07:02:40.207Z,14.93
2023-05-16T07:05:16.391Z,15.05
2023-05-16T07:07:42.909Z,15.03
2023-05-16T07:10:13.782Z,14.89
2023-05-16T07:12:41.762Z,15.18
2023-05-16T07:15:11.027Z,14.98
2023-05-16T07:17:38.868Z,15.00
2023-05-16T07:20:07.219Z,14.91
2023-05-16T07:22:36.305Z,15.14
2023-05-16T07:25:03.035Z,15.36
2023-05-16T07:27:32.954Z,15.13
2023-05-16T07:29:59.435Z,15.33
2023-05-16T07:32:28.339Z,15.36
2023-05-16T07:34:54.840Z,15.48
2023-05-16T07:37:21.283Z,15.15
2023-05-16T07:39:51.201Z,14.86
2023-05-16T07:42:20.479Z,15.20
2023-05-16T07:44:47.021Z,15.67
2023-05-16T07:47:16.697Z,15.48
2023-05-16T07:49:46.145Z,15.48
2023-05-16T07:52:12.513Z,15.25
2023-05-16T07:54:40.294Z,15.40
2023-05-16T07:57:09.589Z,15.40
2023-05-16T07:59:36.214Z,15.01
2023-05-16T08:02:16.533Z,14.57
2023-05-16T08:04:45.409Z,13.96
2023-05-16T08:07:16.236Z,13.03
2023-05-16T08:09:42.753Z,12.40
2023-05-16T08:12:13.732Z,12.27
2023-05-16T08:14:43.318Z,12.12
2023-05-16T08:17:12.332Z,12.02
2023-05-16T08:19:39.331Z,12.26
2023-05-16T08:22:07.538Z,12.63
2023-05-16T08:24:36.577Z,13.18
2023-05-16T08:27:03.272Z,13.37
2023-05-16T08:29:32.924Z,13.59
2023-05-16T08:31:59.711Z,13.67
2023-05-16T08:34:29.553Z,13.97
2023-05-16T08:36:56.251Z,14.03
2023-05-16T08:39:22.652Z,14.18
2023-05-16T08:41:54.588Z,14.42
2023-05-16T08:44:23.790Z,14.92
2023-05-16T08:47:05.542Z,14.82
2023-05-16T08:49:38.993Z,14.32
2023-05-16T08:52:08.721Z,14.12
2023-05-16T08:54:36.533Z,14.04
2023-05-16T08:57:03.872Z,14.05
2023-05-16T08:59:30.830Z,14.63
2023-05-16T09:01:57.549Z,15.38
2023-05-16T09:04:32.772Z,15.45
2023-05-16T09:06:59.428Z,15.38
2023-05-16T09:09:30.789Z,15.26
2023-05-16T09:12:00.112Z,15.35
2023-05-16T09:14:26.776Z,15.05
2023-05-16T09:17:06.382Z,15.13
2023-05-16T09:19:44.441Z,15.69
2023-05-16T09:25:02.609Z,15.24
2023-05-16T09:27:33.413Z,15.45
2023-05-16T09:30:08.894Z,16.05
2023-05-16T09:32:35.311Z,15.67
2023-05-16T09:35:01.720Z,15.76
2023-05-16T09:37:37.767Z,15.98
2023-05-16T09:40:10.048Z,16.14
2023-05-16T09:42:39.625Z,16.17
2023-05-16T09:45:09.652Z,16.43
2023-05-16T09:47:36.133Z,16.74
2023-05-16T09:50:02.731Z,16.90
2023-05-16T09:52:29.927Z,16.92
2023-05-16T09:55:05.680Z,16.95
2023-05-16T09:57:32.803Z,16.69
2023-05-16T10:00:09.071Z,17.11
2023-05-16T10:02:37.521Z,16.61
2023-05-16T10:05:07.890Z,16.64
2023-05-16T10:07:35.171Z,17.55
2023-05-16T10:10:11.214Z,17.43
2023-05-16T10:12:38.750Z,16.55
2023-05-16T10:15:14.400Z,16.41
2023-05-16T10:17:45.569Z,16.38
2023-05-16T10:20:16.790Z,16.45
2023-05-16T10:22:47.645Z,16.34
2023-05-16T10:25:31.758Z,16.58
2023-05-16T10:28:01.173Z,17.30
2023-05-16T10:30:33.297Z,17.27
2023-05-16T10:33:12.322Z,17.10
2023-05-16T10:35:39.202Z,17.16
2023-05-16T10:38:09.638Z,16.83
2023-05-16T10:40:38.289Z,16.45
2023-05-16T10:45:55.092Z,17.42
2023-05-16T10:48:30.978Z,17.64
2023-05-16T10:51:04.363Z,17.67
2023-05-16T10:53:37.164Z,17.37
2023-05-16T10:56:09.091Z,17.25
2023-05-16T10:58:43.258Z,17.15
2023-05-16T11:01:18.618Z,17.67
2023-05-16T11:03:57.189Z,18.22
2023-05-16T11:06:33.256Z,18.66
2023-05-16T11:09:19.789Z,18.01
2023-05-16T11:11:59.807Z,16.98
2023-05-16T11:14:53.877Z,16.89
2023-05-16T11:17:24.260Z,16.97
2023-05-16T11:20:04.036Z,16.90
2023-05-16T11:22:48.203Z,16.72
2023-05-16T11:25:43.915Z,16.84
2023-05-16T11:28:12.030Z,17.03
2023-05-16T11:31:17.188Z,17.37
2023-05-16T11:33:44.993Z,17.19
2023-05-16T11:36:16.450Z,16.77
2023-05-16T11:38:44.365Z,16.70
2023-05-16T11:41:15.557Z,16.71
2023-05-16T11:44:11.205Z,16.72
2023-05-16T11:46:40.930Z,16.70
2023-05-16T11:49:09.605Z,16.57
2023-05-16T11:51:46.292Z,16.40
2023-05-16T11:54:22.836Z,16.24
2023-05-16T11:56:58.313Z,16.37
2023-05-16T11:59:24.779Z,16.09
2023-05-16T12:01:51.250Z,15.84
2023-05-16T12:04:20.914Z,15.65
2023-05-16T12:07:02.863Z,15.71
2023-05-16T12:09:32.064Z,15.93
2023-05-16T12:12:00.083Z,16.08
2023-05-16T12:14:37.197Z,16.26
2023-05-16T12:17:06.477Z,16.24
2023-05-16T12:19:36.654Z,16.44
2023-05-16T12:22:05.178Z,16.56
2023-05-16T12:24:41.742Z,16.41
2023-05-16T12:29:55.763Z,15.97
2023-05-16T12:32:24.972Z,15.95
2023-05-16T12:37:39.407Z,16.11
2023-05-16T12:40:11.126Z,16.35
2023-05-16T12:42:51.826Z,16.35
2023-05-16T12:45:20.942Z,15.88
2023-05-16T12:47:49.967Z,15.23
2023-05-16T12:50:27.413Z,15.57
2023-05-16T12:53:00.012Z,15.70
2023-05-16T12:55:32.173Z,15.61
2023-05-16T12:58:03.061Z,15.32
2023-05-16T13:00:33.674Z,15.17
2023-05-16T13:03:04.725Z,15.30
2023-05-16T13:05:57.123Z,15.28
2023-05-16T13:08:30.198Z,15.50
2023-05-16T13:11:00.486Z,15.53
2023-05-16T13:16:04.261Z,15.82
2023-05-16T13:18:34.563Z,16.31
2023-05-16T13:21:03.816Z,16.63
2023-05-16T13:23:38.226Z,16.39
2023-05-16T13:28:49.910Z,15.94
2023-05-16T13:31:20.504Z,15.75
2023-05-16T13:33:47.553Z,15.45
2023-05-16T13:36:15.458Z,15.32
2023-05-16T13:38:44.696Z,15.49
2023-05-16T13:41:11.115Z,15.61
2023-05-16T13:43:37.883Z,15.59
2023-05-16T13:46:06.725Z,15.67
2023-05-16T13:48:33.169Z,15.86
2023-05-16T13:51:00.213Z,16.50
2023-05-16T13:53:32.675Z,16.52
2023-05-16T13:55:59.070Z,16.31
2023-05-16T13:58:27.956Z,16.04
2023-05-16T14:00:57.510Z,15.88
2023-05-16T14:03:32.583Z,15.75
2023-05-16T14:05:59.106Z,15.66
2023-05-16T14:08:25.627Z,15.46
2023-05-16T14:10:56.680Z,15.50
2023-05-16T14:13:23.053Z,15.33
2023-05-16T14:15:49.533Z,15.61
2023-05-16T14:18:24.850Z,15.67
2023-05-16T14:20:51.552Z,15.44
2023-05-16T14:23:21.152Z,15.08
2023-05-16T14:25:51.282Z,15.13
2023-05-16T14:28:20.305Z,15.42
2023-05-16T14:30:51.873Z,15.58
2023-05-16T14:33:18.430Z,15.73
2023-05-16T14:35:50.586Z,15.78
2023-05-16T14:38:17.001Z,15.80
2023-05-16T14:40:45.546Z,15.75
2023-05-16T14:43:15.184Z,15.68
2023-05-16T14:45:41.676Z,15.53
2023-05-16T14:48:08.662Z,15.44
2023-05-16T14:50:44.493Z,15.38
2023-05-16T14:53:10.950Z,15.40
2023-05-16T14:55:37.845Z,15.24
2023-05-16T14:58:08.615Z,14.89
2023-05-16T15:00:35.182Z,15.02
2023-05-16T15:03:06.289Z,14.99
2023-05-16T15:05:33.045Z,14.98
2023-05-16T15:08:00.271Z,15.02
2023-05-16T15:10:35.877Z,15.08
2023-05-16T15:13:02.409Z,15.13
2023-05-16T15:15:38.913Z,15.30
2023-05-16T15:18:05.579Z,15.53
2023-05-16T15:20:41.335Z,15.71
2023-05-16T15:23:07.786Z,15.77
2023-05-16T15:25:38.357Z,15.86
2023-05-16T15:28:07.677Z,15.77
2023-05-16T15:30:37.241Z,15.97
2023-05-16T15:33:03.775Z,16.14
2023-05-16T15:35:34.442Z,16.17
2023-05-16T15:38:03.846Z,16.10
2023-05-16T15:40:33.130Z,15.79
2023-05-16T15:42:59.575Z,15.64
2023-05-16T15:45:30.953Z,15.62
2023-05-16T15:48:02.940Z,15.26
2023-05-16T15:50:38.486Z,15.36
2023-05-16T15:53:04.934Z,15.31
2023-05-16T15:55:35.221Z,15.30
2023-05-16T15:58:05.423Z,15.12
2023-05-16T16:00:31.829Z,15.04
2023-05-16T16:03:05.233Z,15.02
2023-05-16T16:05:31.775Z,14.89
2023-05-16T16:08:03.298Z,14.86
2023-05-16T16:10:29.910Z,14.85
2023-05-16T16:13:06.163Z,14.79
2023-05-16T16:15:33.479Z,14.71
2023-05-16T16:18:08.351Z,14.63
2023-05-16T16:20:34.926Z,14.59
2023-05-16T16:23:01.460Z,14.52
2023-05-16T16:25:30.644Z,14.49
2023-05-16T16:28:00.636Z,14.53
2023-05-16T16:30:30.698Z,14.50
2023-05-16T16:33:00.602Z,14.43
2023-05-16T16:35:27.360Z,14.36
2023-05-16T16:38:06.755Z,14.34
2023-05-16T16:40:37.432Z,14.36
2023-05-16T16:43:07.812Z,14.30
2023-05-16T16:45:34.277Z,14.29
2023-05-16T16:48:03.070Z,14.29
2023-05-16T16:50:34.354Z,14.28
2023-05-16T16:55:50.758Z,14.12
2023-05-16T16:58:20.877Z,14.19
2023-05-16T17:00:48.391Z,14.28
2023-05-16T17:03:15.184Z,14.34
2023-05-16T17:05:45.766Z,14.22
2023-05-16T17:08:17.308Z,14.10
2023-05-16T17:10:43.707Z,14.01
2023-05-16T17:13:14.762Z,13.94
2023-05-16T17:15:41.412Z,13.95
2023-05-16T17:18:07.999Z,13.98
2023-05-16T17:20:37.885Z,13.94
2023-05-16T17:23:05.450Z,13.93
2023-05-16T17:25:32.325Z,13.87
2023-05-16T17:27:58.735Z,13.90
2023-05-16T17:30:27.970Z,13.94
2023-05-16T17:32:57.516Z,13.88
2023-05-16T17:35:24.205Z,13.96
2023-05-16T17:37:53.796Z,14.04
2023-05-16T17:40:20.655Z,13.99
2023-05-16T17:42:47.208Z,13.89
2023-05-16T17:45:17.643Z,13.83
2023-05-16T17:47:44.169Z,13.79
2023-05-16T17:50:11.001Z,13.89
2023-05-16T17:52:40.400Z,13.90
2023-05-16T17:55:10.221Z,13.94
2023-05-16T17:57:40.183Z,13.97
2023-05-16T18:00:14.536Z,14.02
2023-05-16T18:02:44.460Z,14.01
2023-05-16T18:05:16.325Z,14.07
2023-05-16T18:07:51.106Z,14.06
2023-05-16T18:10:17.649Z,14.09
2023-05-16T18:12:44.205Z,14.13
2023-05-16T18:15:20.058Z,14.18
2023-05-16T18:17:46.536Z,14.21
2023-05-16T18:20:15.984Z,14.13
2023-05-16T18:22:46.260Z,14.17
2023-05-16T18:25:16.968Z,14.08
2023-05-16T18:27:45.969Z,13.89
2023-05-16T18:30:13.364Z,13.84
2023-05-16T18:32:48.645Z,13.79
2023-05-16T18:35:15.341Z,13.77
2023-05-16T18:37:47.555Z,13.69
2023-05-16T18:40:14.180Z,13.64
2023-05-16T18:42:40.751Z,13.54
2023-05-16T18:45:12.274Z,13.36
2023-05-16T18:47:38.971Z,13.32
2023-05-16T18:50:09.360Z,13.27
2023-05-16T18:52:44.335Z,13.24
2023-05-16T18:55:14.632Z,13.15
2023-05-16T18:57:47.218Z,13.08
2023-05-16T19:00:25.666Z,13.05
2023-05-16T19:02:52.212Z,12.98
2023-05-16T19:05:22.990Z,12.88
2023-05-16T19:07:49.648Z,12.79
2023-05-16T19:10:16.190Z,12.69
2023-05-16T19:12:52.579Z,12.54
2023-05-16T19:15:19.070Z,12.51
2023-05-16T19:17:53.889Z,12.42
2023-05-16T19:20:20.500Z,12.36
2023-05-16T19:22:47.946Z,12.31
2023-05-16T19:25:14.424Z,12.24
2023-05-16T19:27:40.826Z,12.18
2023-05-16T19:30:07.869Z,12.15
2023-05-16T19:32:38.244Z,12.11
2023-05-16T19:35:06.383Z,12.03
2023-05-16T19:37:41.668Z,11.96
2023-05-16T19:40:08.657Z,11.92
2023-05-16T19:42:35.150Z,11.88
2023-05-16T19:45:07.204Z,11.87
2023-05-16T19:47:37.805Z,11.81
2023-05-16T19:50:08.658Z,11.77
2023-05-16T19:52:38.020Z,11.78
2023-05-16T19:55:11.373Z,11.75
2023-05-16T19:57:40.664Z,11.68
2023-05-16T20:00:29.597Z,11.68
2023-05-16T20:02:56.556Z,11.67
2023-05-16T20:05:23.505Z,11.68
2023-05-16T20:07:50.363Z,11.69
2023-05-16T20:10:21.912Z,11.71
2023-05-16T20:12:51.339Z,11.70
2023-05-16T20:15:18.796Z,11.74
2023-05-16T20:17:45.565Z,11.76
2023-05-16T20:20:16.297Z,11.80
2023-05-16T20:22:46.148Z,11.81
2023-05-16T20:25:15.475Z,11.81
2023-05-16T20:27:44.512Z,11.81
2023-05-16T20:30:11.844Z,11.77
2023-05-16T20:32:38.311Z,11.73
2023-05-16T20:37:55.375Z,11.59
2023-05-16T20:40:22.970Z,11.54
2023-05-16T20:42:49.667Z,11.48
2023-05-16T20:45:16.462Z,11.43
2023-05-16T20:47:46.702Z,11.34
2023-05-16T20:50:13.190Z,11.27
2023-05-16T20:52:43.012Z,11.22
2023-05-16T20:55:12.550Z,11.15
2023-05-16T20:57:40.758Z,11.08
2023-05-16T21:00:16.374Z,11.07
2023-05-16T21:02:57.416Z,11.03
2023-05-16T21:05:25.850Z,11.00
2023-05-16T21:08:00.247Z,10.94
2023-05-16T21:10:29.142Z,10.88
2023-05-16T21:12:58.371Z,10.86
2023-05-16T21:15:25.259Z,10.84
2023-05-16T21:17:51.932Z,10.80
2023-05-16T21:20:18.877Z,10.75
2023-05-16T21:22:45.442Z,10.71
2023-05-16T21:25:11.854Z,10.68
2023-05-16T21:27:46.470Z,10.66
2023-05-16T21:30:13.461Z,10.61
2023-05-16T21:32:53.895Z,10.58
2023-05-16T21:35:21.999Z,10.56
2023-05-16T21:37:48.418Z,10.52
2023-05-16T21:40:18.904Z,10.47
2023-05-16T21:42:46.869Z,10.44
2023-05-16T21:45:20.036Z,10.42
2023-05-16T21:47:50.209Z,10.40
2023-05-16T21:50:21.533Z,10.36
2023-05-16T21:52:47.905Z,10.34
2023-05-16T21:55:16.217Z,10.32
2023-05-16T21:57:45.546Z,10.28
2023-05-16T22:00:12.944Z,10.28
2023-05-16T22:02:42.450Z,10.27
2023-05-16T22:05:09.497Z,10.23
2023-05-16T22:07:36.626Z,10.22
2023-05-16T22:10:12.065Z,10.15
2023-05-16T22:12:38.739Z,10.11
2023-05-16T22:15:14.112Z,10.10
2023-05-16T22:17:41.796Z,10.05
2023-05-16T22:20:11.893Z,10.05
2023-05-16T22:22:38.445Z,10.03
2023-05-16T22:25:05.287Z,9.99
2023-05-16T22:27:35.436Z,9.97
2023-05-16T22:30:05.171Z,9.95
2023-05-16T22:32:37.113Z,9.90
2023-05-16T22:35:04.941Z,9.88
2023-05-16T22:37:31.362Z,9.87
2023-05-16T22:40:03.018Z,9.85
2023-05-16T22:42:31.204Z,9.84
2023-05-16T22:47:39.574Z,9.79
2023-05-16T22:50:16.722Z,9.74
2023-05-16T22:52:46.955Z,9.73
2023-05-16T22:55:16.152Z,9.68
2023-05-16T22:57:43.921Z,9.65
2023-05-16T23:00:22.688Z,9.63
2023-05-16T23:02:50.874Z,9.59
2023-05-16T23:05:17.682Z,9.58
2023-05-16T23:07:47.954Z,9.56
2023-05-16T23:10:17.307Z,9.53
2023-05-16T23:12:46.754Z,9.49
2023-05-16T23:15:15.404Z,9.49
2023-05-16T23:17:41.927Z,9.45
2023-05-16T23:20:11.778Z,9.44
2023-05-16T23:22:38.240Z,9.40
2023-05-16T23:25:11.468Z,9.39
2023-05-16T23:27:37.878Z,9.37
2023-05-16T23:30:15.328Z,9.35
2023-05-16T23:32:41.847Z,9.33
2023-05-16T23:35:11.725Z,9.28
2023-05-16T23:37:40.901Z,9.20
2023-05-16T23:40:09.165Z,9.20
2023-05-16T23:42:42.247Z,9.12
2023-05-16T23:45:09.246Z,9.11
2023-05-16T23:47:36.794Z,9.06
2023-05-16T23:50:07.067Z,9.06
2023-05-16T23:52:33.495Z,9.06
2023-05-16T23:55:03.357Z,9.04
2023-05-16T23:57:32.502Z,9.06
